^^

Meteo Aereoporti Centro-Italia

 

 
LIRZ - Perugia S.Egidio (208 m.)
Dati ricevuti: 28/01/2020 02:50
Poco nuvoloso
Poco nuvoloso
 Vento da SSE
Vento: SSE 9 km/h
TEMPERATURA: 8°C
Raffreddamento da Vento: 6°C
P.to di Rugiada: 8°C
Umidità: 100%
Pressione: 1017 hPa
Nuvole: Poco nuvoloso
Visibilità: 7 km
Dettagli Nuvole: Poco nuvoloso 488 m
2020/01/28 01:50 LIRZ 280150Z AUTO 16005KT 7000 SCT016/// 08/08 Q1017
 
LIPY - Ancona Falconara (12 m.)
Dati ricevuti: 28/01/2020 02:50
Molto nuvoloso
Molto nuvoloso
 Vento da direzione variabile
Vento: direzione variabile 6 km/h
TEMPERATURA: 7°C
P.to di Rugiada: 6°C
Umidità: 93%
Pressione: 1015 hPa
Nuvole: Molto nuvoloso
Visibilità: 8 km
Dettagli Nuvole: Molto nuvoloso 3962 m
2020/01/28 01:50 LIPY 280150Z AUTO VRB03KT 8000 BKN130/// 07/06 Q1015
 
LIPR - Rimini Miramare (12 m.)
Dati ricevuti: 28/01/2020 02:50
Molto nuvoloso
Molto nuvoloso
 Vento da SE
Vento: SE 9 km/h
TEMPERATURA: 11°C
P.to di Rugiada: 6°C
Umidità: 72%
Pressione: 1014 hPa
Nuvole: Molto nuvoloso
Visibilità: 10 km
Dettagli Nuvole: Qualche nuvola 1402 m
Molto nuvoloso 3658 m
2020/01/28 01:50 LIPR 280150Z AUTO 14005KT 9999 FEW046/// BKN120/// 11/06 Q1014
 
LIRF - Roma Fiumicino (2 m.)
Dati ricevuti: 28/01/2020 02:50
Poco nuvoloso
Poco nuvoloso
 Vento da WSW
Vento: WSW 24 km/h
TEMPERATURA: 13°C
P.to di Rugiada: 10°C
Umidità: 82%
Pressione: 1018 hPa
Nuvole: Poco nuvoloso
Visibilità: 10 km
Dettagli Nuvole: Qualche nuvola 610 m
Poco nuvoloso 1524 m
2020/01/28 01:50 LIRF 280150Z 24013KT 9999 FEW020 SCT050 13/10 Q1018 NOSIG
 
LIRA - Roma Ciampino (129 m.)
Dati ricevuti: 28/01/2020 02:50
Poco nuvoloso
Poco nuvoloso
 Vento da SSE
Vento: SSE 9 km/h
TEMPERATURA: 11°C
P.to di Rugiada: 9°C
Umidità: 88%
Pressione: 1019 hPa
Nuvole: Poco nuvoloso
Visibilità: 10 km
Dettagli Nuvole: Poco nuvoloso 610 m
2020/01/28 01:50 LIRA 280150Z 15005KT 9999 SCT020 11/09 Q1019
 
LIRU - Roma Urbe (17 m.)
Dati ricevuti: 27/01/2020 16:50
Dati non aggiornati
Pioggia, Molto Nuvoloso
Pioggia, Molto Nuvoloso
 Vento da SW
Vento: SW 9 km/h
TEMPERATURA: 13°C
P.to di Rugiada: 8°C
Umidità: 72%
Pressione: 1020 hPa
Condizioni generali: Pioggia
Nuvole: Molto nuvoloso
Visibilità: 10 km
Dettagli Nuvole: Poco nuvoloso 914 m
Molto nuvoloso 1219 m
2020/01/27 15:50 LIRU 271550Z 22005KT 9999 RA SCT030 BKN040 13/08 Q1020
 
LIVF - Frontone (570 m.)
Dati ricevuti: 27/01/2020 09:55
Dati non aggiornati
Qualche nuvola
Qualche nuvola
 Vento da NW
Vento: NW 11 km/h
TEMPERATURA: 7°C
Raffreddamento da Vento: 5°C
P.to di Rugiada: 4°C
Umidità: 81%
Pressione: 1018 hPa
Nuvole: Qualche nuvola
Visibilità: 10 km
Dettagli Nuvole: Qualche nuvola 823 m
2020/01/27 08:55 LIVF 270855Z 31006KT 9999 FEW027 07/04 Q1018
 
LIRQ - Firenze Peretola (40 m.)
Dati ricevuti: 28/01/2020 02:50
Poco nuvoloso
Poco nuvoloso
 Vento da S
Vento: S 11 km/h
TEMPERATURA: 10°C
Raffreddamento da Vento: 8°C
P.to di Rugiada: 9°C
Umidità: 94%
Pressione: 1015 hPa
Nuvole: Poco nuvoloso
Visibilità: 10 km
Dettagli Nuvole: Poco nuvoloso 2134 m
2020/01/28 01:50 LIRQ 280150Z 19006KT 9999 SCT070 10/09 Q1015
 
LIBP - Pescara (10 m.)
Dati ricevuti: 28/01/2020 02:50
Coperto
Coperto
 Vento da direzione variabile
Vento: direzione variabile 6 km/h
TEMPERATURA: 5°C
P.to di Rugiada: 4°C
Umidità: 93%
Pressione: 1016 hPa
Nuvole: Coperto
Visibilità: 10 km
Dettagli Nuvole: Coperto 4267 m
2020/01/28 01:50 LIBP 280150Z AUTO VRB03KT 9999 OVC140/// 05/04 Q1016
 
LIRV - Viterbo (300 m.)
Dati ricevuti: 27/01/2020 19:55
Dati non aggiornati
Qualche nuvola
Qualche nuvola
 Vento da ENE
Vento: ENE 2 km/h
TEMPERATURA: 9°C
P.to di Rugiada: 7°C
Umidità: 87%
Pressione: 1019 hPa
Nuvole: Qualche nuvola
Visibilità: 10 km
Dettagli Nuvole: Qualche nuvola 732 m
2020/01/27 18:55 LIRV 271855Z 07001KT 9999 FEW024 09/07 Q1019
 
LIQN - Rieti (389 m.)
Dati ricevuti: 27/01/2020 17:50
Dati non aggiornati
Poco nuvoloso
Poco nuvoloso
 Vento da direzione variabile
Vento: direzione variabile 4 km/h
TEMPERATURA: 7°C
P.to di Rugiada: 6°C
Umidità: 93%
Pressione: 1019 hPa
Nuvole: Poco nuvoloso
Visibilità: 8 km
Dettagli Nuvole: Poco nuvoloso 1067 m
2020/01/27 16:50 LIQN 271650Z VRB02KT 8000 SCT035 07/06 Q1019
 
LIRG - Guidonia -RM- (88 m.)
Dati ricevuti: 27/01/2020 18:55
Dati non aggiornati
Poco nuvoloso
Poco nuvoloso
 Vento da NE
Vento: NE 7 km/h
TEMPERATURA: 12°C
P.to di Rugiada: 9°C
Umidità: 82%
Pressione: 1020 hPa
Nuvole: Poco nuvoloso
Visibilità: 10 km
Dettagli Nuvole: Poco nuvoloso 1067 m
2020/01/27 17:55 LIRG 271755Z 05004KT 9999 SCT035 12/09 Q1020
 
LIRK - Terminillo -RI-(1874 m.)
Dati ricevuti: 28/12/2019 23:55
Dati non aggiornati

 Vento da direzione variabile
Vento: direzione variabile 50 km/h, Raffica: 78 km/h
TEMPERATURA: -8°C
Raffreddamento da Vento: -19°C
P.to di Rugiada: -14°C
Umidità: 62%
Pressione: 1021 hPa
2019/12/28 22:55 LIRK 282255Z AUTO VRB27G42KT //// M08/M14 Q1021
 
LIPK - Forlì (27 m.)
Dati ricevuti: 27/01/2020 17:50
Dati non aggiornati
Qualche nuvola
Qualche nuvola
 Vento da E
Vento: E 7 km/h
TEMPERATURA: 8°C
Raffreddamento da Vento: 7°C
P.to di Rugiada: 3°C
Umidità: 71%
Pressione: 1018 hPa
Nuvole: Qualche nuvola
Visibilità: 8 km
Dettagli Nuvole: Qualche nuvola 914 m
2020/01/27 16:50 LIPK 271650Z 09004KT 8000 FEW030 08/03 Q1018
 
LIRS - Grosseto (5 m.)
Dati ricevuti: 28/01/2020 02:55
Poco nuvoloso
Poco nuvoloso
 Vento da NE
Vento: NE 7 km/h
TEMPERATURA: 10°C
Raffreddamento da Vento: 9°C
P.to di Rugiada: 8°C
Umidità: 88%
Pressione: 1016 hPa
Nuvole: Poco nuvoloso
Visibilità: 10 km
Dettagli Nuvole: Qualche nuvola 457 m
Poco nuvoloso 762 m
2020/01/28 01:55 LIRS 280155Z 05004KT 9999 FEW015 SCT025 10/08 Q1016
 
LIRP - Pisa S.Giusto (2 m.)
Dati ricevuti: 28/01/2020 02:45
Pioggia debole, Poco nuvoloso
Pioggia debole, Poco nuvoloso
 Vento da WSW
Vento: WSW 19 km/h
TEMPERATURA: 12°C
P.to di Rugiada: 8°C
Umidità: 77%
Pressione: 1016 hPa
Condizioni generali: Pioggia debole
Nuvole: Poco nuvoloso
Visibilità: 10 km
Dettagli Nuvole: Poco nuvoloso 1829 m
2020/01/28 01:45 LIRP 280145Z 25010KT 9999 -RA SCT060 12/08 Q1016 NOSIG